sensor_id;sensor_type;location;lat;lon;timestamp;P1;durP1;ratioP1;P2;durP2;ratioP2
61675;SDS011;47574;52.090;5.244;2024-02-26T00:00:54;3.9;;;3.5;;
61675;SDS011;47574;52.090;5.244;2024-02-26T00:02:31;5.11;;;4.0;;
61675;SDS011;47574;52.090;5.244;2024-02-26T00:07:21;4.2;;;3.7;;
61675;SDS011;47574;52.090;5.244;2024-02-26T00:08:57;3.5;;;3.2;;
61675;SDS011;47574;52.090;5.244;2024-02-26T00:12:10;4.2;;;3.5;;
61675;SDS011;47574;52.090;5.244;2024-02-26T00:13:49;4.0;;;3.7;;
61675;SDS011;47574;52.090;5.244;2024-02-26T00:15:25;3.7;;;3.4;;
61675;SDS011;47574;52.090;5.244;2024-02-26T00:17:01;4.1;;;3.7;;
61675;SDS011;47574;52.090;5.244;2024-02-26T00:20:15;5.11;;;3.7;;
61675;SDS011;47574;52.090;5.244;2024-02-26T00:21:51;3.6;;;3.3;;
61675;SDS011;47574;52.090;5.244;2024-02-26T00:23:27;4.1;;;3.7;;
61675;SDS011;47574;52.090;5.244;2024-02-26T00:26:41;3.9;;;3.6;;
61675;SDS011;47574;52.090;5.244;2024-02-26T00:28:18;3.8;;;3.5;;
61675;SDS011;47574;52.090;5.244;2024-02-26T00:29:56;4.1;;;3.4;;
61675;SDS011;47574;52.090;5.244;2024-02-26T00:33:09;4.3;;;3.9;;
61675;SDS011;47574;52.090;5.244;2024-02-26T00:34:46;5.3;;;3.8;;
61675;SDS011;47574;52.090;5.244;2024-02-26T00:36:22;4.0;;;3.6;;
61675;SDS011;47574;52.090;5.244;2024-02-26T00:37:58;3.8;;;3.5;;
61675;SDS011;47574;52.090;5.244;2024-02-26T00:41:11;4.1;;;3.7;;
61675;SDS011;47574;52.090;5.244;2024-02-26T00:42:47;4.3;;;3.9;;
61675;SDS011;47574;52.090;5.244;2024-02-26T00:44:23;4.7;;;4.2;;
61675;SDS011;47574;52.090;5.244;2024-02-26T00:47:36;4.3;;;3.9;;
61675;SDS011;47574;52.090;5.244;2024-02-26T00:49:12;4.0;;;3.7;;
61675;SDS011;47574;52.090;5.244;2024-02-26T00:50:48;4.5;;;3.9;;
61675;SDS011;47574;52.090;5.244;2024-02-26T00:54:01;4.41;;;3.9;;
61675;SDS011;47574;52.090;5.244;2024-02-26T00:55:38;4.5;;;3.7;;
61675;SDS011;47574;52.090;5.244;2024-02-26T00:57:14;4.1;;;3.8;;
61675;SDS011;47574;52.090;5.244;2024-02-26T00:58:50;4.41;;;4.1;;
61675;SDS011;47574;52.090;5.244;2024-02-26T01:02:02;5.11;;;3.9;;
61675;SDS011;47574;52.090;5.244;2024-02-26T01:03:38;3.9;;;3.6;;
61675;SDS011;47574;52.090;5.244;2024-02-26T01:05:14;4.2;;;3.9;;
61675;SDS011;47574;52.090;5.244;2024-02-26T01:08:26;4.61;;;4.2;;
61675;SDS011;47574;52.090;5.244;2024-02-26T01:10:08;4.41;;;4.0;;
61675;SDS011;47574;52.090;5.244;2024-02-26T01:11:45;4.5;;;4.1;;
61675;SDS011;47574;52.090;5.244;2024-02-26T01:14:57;4.61;;;4.2;;
61675;SDS011;47574;52.090;5.244;2024-02-26T01:16:33;5.2;;;4.41;;
61675;SDS011;47574;52.090;5.244;2024-02-26T01:18:09;4.61;;;4.3;;
61675;SDS011;47574;52.090;5.244;2024-02-26T01:19:46;4.41;;;4.0;;
61675;SDS011;47574;52.090;5.244;2024-02-26T01:23:00;4.5;;;4.1;;
61675;SDS011;47574;52.090;5.244;2024-02-26T01:24:37;5.0;;;4.5;;
61675;SDS011;47574;52.090;5.244;2024-02-26T01:26:13;5.6;;;4.8;;
61675;SDS011;47574;52.090;5.244;2024-02-26T01:29:26;4.8;;;4.41;;
61675;SDS011;47574;52.090;5.244;2024-02-26T01:31:02;5.0;;;4.61;;
61675;SDS011;47574;52.090;5.244;2024-02-26T01:32:39;5.0;;;4.61;;
61675;SDS011;47574;52.090;5.244;2024-02-26T01:35:52;4.61;;;4.2;;
61675;SDS011;47574;52.090;5.244;2024-02-26T01:37:28;5.11;;;4.61;;
61675;SDS011;47574;52.090;5.244;2024-02-26T01:39:04;5.3;;;4.8;;
61675;SDS011;47574;52.090;5.244;2024-02-26T01:42:17;5.3;;;4.8;;
61675;SDS011;47574;52.090;5.244;2024-02-26T01:43:56;4.7;;;4.3;;
61675;SDS011;47574;52.090;5.244;2024-02-26T01:45:32;5.11;;;4.7;;
61675;SDS011;47574;52.090;5.244;2024-02-26T01:47:10;4.91;;;4.5;;
61675;SDS011;47574;52.090;5.244;2024-02-26T01:50:24;4.7;;;4.41;;
61675;SDS011;47574;52.090;5.244;2024-02-26T01:52:01;5.11;;;4.61;;
61675;SDS011;47574;52.090;5.244;2024-02-26T01:53:39;4.7;;;4.3;;
61675;SDS011;47574;52.090;5.244;2024-02-26T01:56:53;4.8;;;4.41;;
61675;SDS011;47574;52.090;5.244;2024-02-26T01:58:30;4.7;;;4.3;;
61675;SDS011;47574;52.090;5.244;2024-02-26T02:00:09;5.2;;;4.7;;
61675;SDS011;47574;52.090;5.244;2024-02-26T02:01:47;5.4;;;4.7;;
61675;SDS011;47574;52.090;5.244;2024-02-26T02:05:07;4.8;;;4.5;;
61675;SDS011;47574;52.090;5.244;2024-02-26T02:06:45;5.4;;;4.91;;
61675;SDS011;47574;52.090;5.244;2024-02-26T02:08:21;4.91;;;4.5;;
61675;SDS011;47574;52.090;5.244;2024-02-26T02:09:59;5.11;;;4.61;;
61675;SDS011;47574;52.090;5.244;2024-02-26T02:13:13;4.91;;;4.5;;
61675;SDS011;47574;52.090;5.244;2024-02-26T02:14:49;5.2;;;4.8;;
61675;SDS011;47574;52.090;5.244;2024-02-26T02:16:25;4.8;;;4.41;;
61675;SDS011;47574;52.090;5.244;2024-02-26T02:19:37;4.91;;;4.5;;
61675;SDS011;47574;52.090;5.244;2024-02-26T02:21:13;4.91;;;4.5;;
61675;SDS011;47574;52.090;5.244;2024-02-26T02:22:49;5.2;;;4.8;;
61675;SDS011;47574;52.090;5.244;2024-02-26T02:26:03;5.11;;;4.7;;
61675;SDS011;47574;52.090;5.244;2024-02-26T02:27:39;5.4;;;5.0;;
61675;SDS011;47574;52.090;5.244;2024-02-26T02:29:16;5.11;;;4.7;;
61675;SDS011;47574;52.090;5.244;2024-02-26T02:30:52;5.9;;;5.4;;
61675;SDS011;47574;52.090;5.244;2024-02-26T02:34:06;5.8;;;5.3;;
61675;SDS011;47574;52.090;5.244;2024-02-26T02:35:44;5.8;;;5.4;;
61675;SDS011;47574;52.090;5.244;2024-02-26T02:37:20;5.8;;;5.3;;
61675;SDS011;47574;52.090;5.244;2024-02-26T02:40:33;6.1;;;5.6;;
61675;SDS011;47574;52.090;5.244;2024-02-26T02:42:11;5.8;;;5.4;;
61675;SDS011;47574;52.090;5.244;2024-02-26T02:43:47;6.5;;;6.0;;
61675;SDS011;47574;52.090;5.244;2024-02-26T02:46:59;6.1;;;5.6;;
61675;SDS011;47574;52.090;5.244;2024-02-26T02:48:35;6.5;;;6.0;;
61675;SDS011;47574;52.090;5.244;2024-02-26T02:50:11;6.2;;;5.8;;
61675;SDS011;47574;52.090;5.244;2024-02-26T02:51:51;5.9;;;5.5;;
61675;SDS011;47574;52.090;5.244;2024-02-26T02:55:04;6.1;;;5.6;;
61675;SDS011;47574;52.090;5.244;2024-02-26T02:56:41;6.4;;;5.8;;
61675;SDS011;47574;52.090;5.244;2024-02-26T02:58:17;5.9;;;5.4;;
61675;SDS011;47574;52.090;5.244;2024-02-26T03:01:30;6.3;;;5.8;;
61675;SDS011;47574;52.090;5.244;2024-02-26T03:03:06;6.5;;;5.9;;
61675;SDS011;47574;52.090;5.244;2024-02-26T03:04:42;6.5;;;6.0;;
61675;SDS011;47574;52.090;5.244;2024-02-26T03:07:54;6.2;;;5.7;;
61675;SDS011;47574;52.090;5.244;2024-02-26T03:09:30;6.5;;;5.9;;
61675;SDS011;47574;52.090;5.244;2024-02-26T03:11:06;6.2;;;5.7;;
61675;SDS011;47574;52.090;5.244;2024-02-26T03:14:18;6.2;;;5.7;;
61675;SDS011;47574;52.090;5.244;2024-02-26T03:15:54;6.8;;;6.2;;
61675;SDS011;47574;52.090;5.244;2024-02-26T03:17:31;6.5;;;6.1;;
61675;SDS011;47574;52.090;5.244;2024-02-26T03:19:07;6.9;;;6.3;;
61675;SDS011;47574;52.090;5.244;2024-02-26T03:22:19;7.0;;;6.4;;
61675;SDS011;47574;52.090;5.244;2024-02-26T03:23:55;6.9;;;6.4;;
61675;SDS011;47574;52.090;5.244;2024-02-26T03:25:31;6.9;;;6.4;;
61675;SDS011;47574;52.090;5.244;2024-02-26T03:28:44;6.8;;;6.3;;
61675;SDS011;47574;52.090;5.244;2024-02-26T03:30:20;6.8;;;6.3;;
61675;SDS011;47574;52.090;5.244;2024-02-26T03:31:57;7.3;;;6.7;;
61675;SDS011;47574;52.090;5.244;2024-02-26T03:35:11;6.7;;;6.2;;
61675;SDS011;47574;52.090;5.244;2024-02-26T03:36:47;7.3;;;6.7;;
61675;SDS011;47574;52.090;5.244;2024-02-26T03:38:23;7.5;;;6.9;;
61675;SDS011;47574;52.090;5.244;2024-02-26T03:40:00;7.7;;;7.0;;
61675;SDS011;47574;52.090;5.244;2024-02-26T03:43:12;7.4;;;6.8;;
61675;SDS011;47574;52.090;5.244;2024-02-26T03:44:48;7.9;;;7.3;;
61675;SDS011;47574;52.090;5.244;2024-02-26T03:46:24;7.8;;;7.2;;
61675;SDS011;47574;52.090;5.244;2024-02-26T03:49:37;7.9;;;7.3;;
61675;SDS011;47574;52.090;5.244;2024-02-26T03:51:14;7.7;;;7.1;;
61675;SDS011;47574;52.090;5.244;2024-02-26T03:52:51;8.2;;;7.5;;
61675;SDS011;47574;52.090;5.244;2024-02-26T03:56:04;8.1;;;7.5;;
61675;SDS011;47574;52.090;5.244;2024-02-26T03:57:42;8.4;;;7.6;;
61675;SDS011;47574;52.090;5.244;2024-02-26T03:59:19;8.1;;;7.5;;
61675;SDS011;47574;52.090;5.244;2024-02-26T04:00:55;8.71;;;8.0;;
61675;SDS011;47574;52.090;5.244;2024-02-26T04:04:07;8.31;;;7.6;;
61675;SDS011;47574;52.090;5.244;2024-02-26T04:05:43;8.5;;;7.8;;
61675;SDS011;47574;52.090;5.244;2024-02-26T04:07:21;8.5;;;7.7;;
61675;SDS011;47574;52.090;5.244;2024-02-26T04:10:33;9.31;;;8.6;;
61675;SDS011;47574;52.090;5.244;2024-02-26T04:12:09;8.9;;;8.1;;
61675;SDS011;47574;52.090;5.244;2024-02-26T04:13:45;8.1;;;7.5;;
61675;SDS011;47574;52.090;5.244;2024-02-26T04:16:58;8.81;;;8.2;;
61675;SDS011;47574;52.090;5.244;2024-02-26T04:18:34;9.0;;;8.31;;
61675;SDS011;47574;52.090;5.244;2024-02-26T04:20:13;9.5;;;8.6;;
61675;SDS011;47574;52.090;5.244;2024-02-26T04:21:51;9.5;;;8.6;;
61675;SDS011;47574;52.090;5.244;2024-02-26T04:25:04;9.31;;;8.5;;
61675;SDS011;47574;52.090;5.244;2024-02-26T04:26:41;8.6;;;7.9;;
61675;SDS011;47574;52.090;5.244;2024-02-26T04:28:17;9.31;;;8.5;;
61675;SDS011;47574;52.090;5.244;2024-02-26T04:31:29;8.9;;;8.1;;
61675;SDS011;47574;52.090;5.244;2024-02-26T04:33:06;9.5;;;8.6;;
61675;SDS011;47574;52.090;5.244;2024-02-26T04:34:42;9.31;;;8.5;;
61675;SDS011;47574;52.090;5.244;2024-02-26T04:37:55;9.1;;;8.31;;
61675;SDS011;47574;52.090;5.244;2024-02-26T04:39:31;9.71;;;8.9;;
61675;SDS011;47574;52.090;5.244;2024-02-26T04:41:08;9.5;;;8.6;;
61675;SDS011;47574;52.090;5.244;2024-02-26T04:42:45;9.81;;;9.0;;
61675;SDS011;47574;52.090;5.244;2024-02-26T04:45:59;9.81;;;9.0;;
61675;SDS011;47574;52.090;5.244;2024-02-26T04:47:35;9.4;;;8.6;;
61675;SDS011;47574;52.090;5.244;2024-02-26T04:49:11;9.81;;;9.0;;
61675;SDS011;47574;52.090;5.244;2024-02-26T04:52:23;10.5;;;9.5;;
61675;SDS011;47574;52.090;5.244;2024-02-26T04:53:59;9.81;;;8.9;;
61675;SDS011;47574;52.090;5.244;2024-02-26T04:55:36;10.3;;;9.4;;
61675;SDS011;47574;52.090;5.244;2024-02-26T04:58:48;10.3;;;9.4;;
61675;SDS011;47574;52.090;5.244;2024-02-26T05:00:25;10.7;;;9.71;;
61675;SDS011;47574;52.090;5.244;2024-02-26T05:02:02;10.5;;;9.6;;
61675;SDS011;47574;52.090;5.244;2024-02-26T05:03:39;10.4;;;9.4;;
61675;SDS011;47574;52.090;5.244;2024-02-26T05:06:52;10.5;;;9.6;;
61675;SDS011;47574;52.090;5.244;2024-02-26T05:08:31;10.4;;;9.6;;
61675;SDS011;47574;52.090;5.244;2024-02-26T05:10:07;11.0;;;10.0;;
61675;SDS011;47574;52.090;5.244;2024-02-26T05:13:20;11.5;;;10.5;;
61675;SDS011;47574;52.090;5.244;2024-02-26T05:14:58;10.21;;;9.31;;
61675;SDS011;47574;52.090;5.244;2024-02-26T05:16:35;10.9;;;9.9;;
61675;SDS011;47574;52.090;5.244;2024-02-26T05:19:47;11.4;;;10.4;;
61675;SDS011;47574;52.090;5.244;2024-02-26T05:21:23;11.4;;;10.3;;
61675;SDS011;47574;52.090;5.244;2024-02-26T05:22:59;11.4;;;10.5;;
61675;SDS011;47574;52.090;5.244;2024-02-26T05:24:37;12.0;;;11.0;;
61675;SDS011;47574;52.090;5.244;2024-02-26T05:27:55;11.3;;;10.3;;
61675;SDS011;47574;52.090;5.244;2024-02-26T05:29:32;10.5;;;9.6;;
61675;SDS011;47574;52.090;5.244;2024-02-26T05:31:08;11.8;;;10.8;;
61675;SDS011;47574;52.090;5.244;2024-02-26T05:34:24;11.5;;;10.5;;
61675;SDS011;47574;52.090;5.244;2024-02-26T05:36:00;12.3;;;11.3;;
61675;SDS011;47574;52.090;5.244;2024-02-26T05:37:37;11.4;;;10.4;;
61675;SDS011;47574;52.090;5.244;2024-02-26T05:39:14;11.3;;;10.3;;
61675;SDS011;47574;52.090;5.244;2024-02-26T05:42:26;12.5;;;11.3;;
61675;SDS011;47574;52.090;5.244;2024-02-26T05:44:02;12.6;;;11.5;;
61675;SDS011;47574;52.090;5.244;2024-02-26T05:45:39;12.4;;;11.3;;
61675;SDS011;47574;52.090;5.244;2024-02-26T05:48:53;11.8;;;10.8;;
61675;SDS011;47574;52.090;5.244;2024-02-26T05:50:30;11.8;;;10.7;;
61675;SDS011;47574;52.090;5.244;2024-02-26T05:52:07;12.1;;;10.9;;
61675;SDS011;47574;52.090;5.244;2024-02-26T05:55:21;12.6;;;11.5;;
61675;SDS011;47574;52.090;5.244;2024-02-26T05:56:58;12.3;;;11.2;;
61675;SDS011;47574;52.090;5.244;2024-02-26T05:58:34;12.9;;;11.8;;
61675;SDS011;47574;52.090;5.244;2024-02-26T06:00:12;12.9;;;11.5;;
61675;SDS011;47574;52.090;5.244;2024-02-26T06:03:25;13.2;;;12.0;;
61675;SDS011;47574;52.090;5.244;2024-02-26T06:05:01;13.5;;;12.2;;
61675;SDS011;47574;52.090;5.244;2024-02-26T06:06:38;13.1;;;12.0;;
61675;SDS011;47574;52.090;5.244;2024-02-26T06:09:52;13.1;;;11.9;;
61675;SDS011;47574;52.090;5.244;2024-02-26T06:11:30;13.0;;;11.9;;
61675;SDS011;47574;52.090;5.244;2024-02-26T06:13:08;14.4;;;13.0;;
61675;SDS011;47574;52.090;5.244;2024-02-26T06:14:45;13.7;;;12.5;;
61675;SDS011;47574;52.090;5.244;2024-02-26T06:17:58;14.2;;;12.8;;
61675;SDS011;47574;52.090;5.244;2024-02-26T06:19:35;14.0;;;12.7;;
61675;SDS011;47574;52.090;5.244;2024-02-26T06:21:12;13.7;;;12.5;;
61675;SDS011;47574;52.090;5.244;2024-02-26T06:24:27;15.0;;;13.5;;
61675;SDS011;47574;52.090;5.244;2024-02-26T06:26:04;15.0;;;13.4;;
61675;SDS011;47574;52.090;5.244;2024-02-26T06:27:41;13.9;;;12.7;;
61675;SDS011;47574;52.090;5.244;2024-02-26T06:30:55;14.3;;;13.0;;
61675;SDS011;47574;52.090;5.244;2024-02-26T06:32:32;15.9;;;14.3;;
61675;SDS011;47574;52.090;5.244;2024-02-26T06:34:09;15.0;;;13.5;;
61675;SDS011;47574;52.090;5.244;2024-02-26T06:35:46;15.3;;;13.8;;
61675;SDS011;47574;52.090;5.244;2024-02-26T06:39:00;16.61;;;14.4;;
61675;SDS011;47574;52.090;5.244;2024-02-26T06:40:37;15.8;;;14.2;;
61675;SDS011;47574;52.090;5.244;2024-02-26T06:42:14;16.61;;;15.0;;
61675;SDS011;47574;52.090;5.244;2024-02-26T06:45:27;17.11;;;15.3;;
61675;SDS011;47574;52.090;5.244;2024-02-26T06:47:04;17.2;;;15.4;;
61675;SDS011;47574;52.090;5.244;2024-02-26T06:48:40;16.5;;;14.9;;
61675;SDS011;47574;52.090;5.244;2024-02-26T06:51:54;17.8;;;16.0;;
61675;SDS011;47574;52.090;5.244;2024-02-26T06:53:31;17.8;;;16.11;;
61675;SDS011;47574;52.090;5.244;2024-02-26T06:55:08;17.8;;;16.0;;
61675;SDS011;47574;52.090;5.244;2024-02-26T06:56:45;18.8;;;16.9;;
61675;SDS011;47574;52.090;5.244;2024-02-26T06:59:58;18.61;;;16.8;;
61675;SDS011;47574;52.090;5.244;2024-02-26T07:01:35;20.3;;;17.61;;
61675;SDS011;47574;52.090;5.244;2024-02-26T07:03:12;20.11;;;18.0;;
61675;SDS011;47574;52.090;5.244;2024-02-26T07:06:27;21.1;;;18.91;;
61675;SDS011;47574;52.090;5.244;2024-02-26T07:08:04;22.4;;;19.7;;
61675;SDS011;47574;52.090;5.244;2024-02-26T07:09:42;24.0;;;21.4;;
61675;SDS011;47574;52.090;5.244;2024-02-26T07:11:18;25.9;;;23.0;;
61675;SDS011;47574;52.090;5.244;2024-02-26T07:14:32;27.7;;;23.4;;
61675;SDS011;47574;52.090;5.244;2024-02-26T07:16:09;29.4;;;24.0;;
61675;SDS011;47574;52.090;5.244;2024-02-26T07:17:57;29.5;;;25.1;;
61675;SDS011;47574;52.090;5.244;2024-02-26T07:21:11;30.9;;;26.9;;
61675;SDS011;47574;52.090;5.244;2024-02-26T07:22:47;30.0;;;25.6;;
61675;SDS011;47574;52.090;5.244;2024-02-26T07:24:24;34.21;;;28.3;;
61675;SDS011;47574;52.090;5.244;2024-02-26T07:26:01;32.6;;;28.4;;
61675;SDS011;47574;52.090;5.244;2024-02-26T07:29:18;34.6;;;29.8;;
61675;SDS011;47574;52.090;5.244;2024-02-26T07:30:55;35.81;;;30.0;;
61675;SDS011;47574;52.090;5.244;2024-02-26T07:32:32;35.5;;;30.3;;
61675;SDS011;47574;52.090;5.244;2024-02-26T07:35:46;34.4;;;29.3;;
61675;SDS011;47574;52.090;5.244;2024-02-26T07:37:24;35.1;;;30.3;;
61675;SDS011;47574;52.090;5.244;2024-02-26T07:39:01;36.5;;;32.0;;
61675;SDS011;47574;52.090;5.244;2024-02-26T07:40:38;36.21;;;31.3;;
61675;SDS011;47574;52.090;5.244;2024-02-26T07:43:51;36.4;;;31.9;;
61675;SDS011;47574;52.090;5.244;2024-02-26T07:45:28;37.1;;;32.21;;
61675;SDS011;47574;52.090;5.244;2024-02-26T07:47:04;38.5;;;34.31;;
61675;SDS011;47574;52.090;5.244;2024-02-26T07:50:17;36.0;;;31.5;;
61675;SDS011;47574;52.090;5.244;2024-02-26T07:51:54;37.21;;;32.6;;
61675;SDS011;47574;52.090;5.244;2024-02-26T07:53:31;39.0;;;32.6;;
61675;SDS011;47574;52.090;5.244;2024-02-26T07:56:45;36.31;;;31.6;;
61675;SDS011;47574;52.090;5.244;2024-02-26T07:58:22;37.1;;;32.3;;
61675;SDS011;47574;52.090;5.244;2024-02-26T07:59:59;37.0;;;31.7;;
61675;SDS011;47574;52.090;5.244;2024-02-26T08:01:37;36.0;;;31.2;;
61675;SDS011;47574;52.090;5.244;2024-02-26T08:04:50;36.0;;;31.2;;
61675;SDS011;47574;52.090;5.244;2024-02-26T08:06:26;36.21;;;31.1;;
61675;SDS011;47574;52.090;5.244;2024-02-26T08:08:03;35.31;;;31.4;;
61675;SDS011;47574;52.090;5.244;2024-02-26T08:11:18;34.71;;;30.9;;
61675;SDS011;47574;52.090;5.244;2024-02-26T08:12:54;34.1;;;30.5;;
61675;SDS011;47574;52.090;5.244;2024-02-26T08:14:30;31.7;;;28.4;;
61675;SDS011;47574;52.090;5.244;2024-02-26T08:16:08;32.21;;;28.8;;
61675;SDS011;47574;52.090;5.244;2024-02-26T08:19:22;30.6;;;27.4;;
61675;SDS011;47574;52.090;5.244;2024-02-26T08:20:59;28.8;;;25.7;;
61675;SDS011;47574;52.090;5.244;2024-02-26T08:22:36;26.6;;;23.8;;
61675;SDS011;47574;52.090;5.244;2024-02-26T08:25:50;27.0;;;24.2;;
61675;SDS011;47574;52.090;5.244;2024-02-26T08:27:28;24.2;;;21.6;;
61675;SDS011;47574;52.090;5.244;2024-02-26T08:29:04;25.2;;;22.7;;
61675;SDS011;47574;52.090;5.244;2024-02-26T08:32:18;23.8;;;21.3;;
61675;SDS011;47574;52.090;5.244;2024-02-26T08:33:54;22.1;;;19.91;;
61675;SDS011;47574;52.090;5.244;2024-02-26T08:35:31;22.2;;;19.91;;
61675;SDS011;47574;52.090;5.244;2024-02-26T08:37:07;20.11;;;18.0;;
61675;SDS011;47574;52.090;5.244;2024-02-26T08:40:21;20.2;;;18.11;;
61675;SDS011;47574;52.090;5.244;2024-02-26T08:41:58;20.2;;;18.11;;
61675;SDS011;47574;52.090;5.244;2024-02-26T08:43:35;18.5;;;16.7;;
61675;SDS011;47574;52.090;5.244;2024-02-26T08:46:48;18.3;;;16.4;;
61675;SDS011;47574;52.090;5.244;2024-02-26T08:48:24;18.5;;;16.61;;
61675;SDS011;47574;52.090;5.244;2024-02-26T08:50:02;17.8;;;16.0;;
61675;SDS011;47574;52.090;5.244;2024-02-26T08:51:41;17.61;;;15.7;;
61675;SDS011;47574;52.090;5.244;2024-02-26T08:54:55;17.11;;;15.3;;
61675;SDS011;47574;52.090;5.244;2024-02-26T08:56:32;17.2;;;15.4;;
61675;SDS011;47574;52.090;5.244;2024-02-26T08:58:09;16.7;;;15.0;;
61675;SDS011;47574;52.090;5.244;2024-02-26T09:01:23;17.11;;;15.4;;
61675;SDS011;47574;52.090;5.244;2024-02-26T09:03:00;16.3;;;14.7;;
61675;SDS011;47574;52.090;5.244;2024-02-26T09:04:36;17.3;;;15.6;;
61675;SDS011;47574;52.090;5.244;2024-02-26T09:07:51;15.2;;;13.6;;
61675;SDS011;47574;52.090;5.244;2024-02-26T09:09:28;16.4;;;14.8;;
61675;SDS011;47574;52.090;5.244;2024-02-26T09:11:04;16.2;;;14.6;;
61675;SDS011;47574;52.090;5.244;2024-02-26T09:12:40;15.8;;;14.1;;
61675;SDS011;47574;52.090;5.244;2024-02-26T09:15:55;15.0;;;13.4;;
61675;SDS011;47574;52.090;5.244;2024-02-26T09:17:32;15.1;;;13.5;;
61675;SDS011;47574;52.090;5.244;2024-02-26T09:19:09;15.1;;;13.7;;
61675;SDS011;47574;52.090;5.244;2024-02-26T09:22:23;15.4;;;13.9;;
61675;SDS011;47574;52.090;5.244;2024-02-26T09:24:00;14.5;;;13.0;;
61675;SDS011;47574;52.090;5.244;2024-02-26T09:25:37;14.1;;;12.7;;
61675;SDS011;47574;52.090;5.244;2024-02-26T09:27:15;13.7;;;12.4;;
61675;SDS011;47574;52.090;5.244;2024-02-26T09:30:29;13.1;;;11.8;;
61675;SDS011;47574;52.090;5.244;2024-02-26T09:32:06;13.2;;;11.8;;
61675;SDS011;47574;52.090;5.244;2024-02-26T09:33:43;13.2;;;11.9;;
61675;SDS011;47574;52.090;5.244;2024-02-26T09:36:57;13.3;;;12.0;;
61675;SDS011;47574;52.090;5.244;2024-02-26T09:38:34;12.8;;;11.6;;
61675;SDS011;47574;52.090;5.244;2024-02-26T09:40:12;12.6;;;11.3;;
61675;SDS011;47574;52.090;5.244;2024-02-26T09:43:24;12.7;;;11.5;;
61675;SDS011;47574;52.090;5.244;2024-02-26T09:45:10;11.6;;;10.5;;
61675;SDS011;47574;52.090;5.244;2024-02-26T09:46:52;12.1;;;10.9;;
61675;SDS011;47574;52.090;5.244;2024-02-26T09:48:29;11.6;;;10.5;;
61675;SDS011;47574;52.090;5.244;2024-02-26T09:51:46;11.8;;;10.6;;
61675;SDS011;47574;52.090;5.244;2024-02-26T09:53:25;11.8;;;10.6;;
61675;SDS011;47574;52.090;5.244;2024-02-26T09:55:04;11.3;;;10.1;;
61675;SDS011;47574;52.090;5.244;2024-02-26T09:56:44;11.0;;;10.0;;
61675;SDS011;47574;52.090;5.244;2024-02-26T10:00:08;12.3;;;11.0;;
61675;SDS011;47574;52.090;5.244;2024-02-26T10:01:50;11.7;;;10.6;;
61675;SDS011;47574;52.090;5.244;2024-02-26T10:03:31;11.3;;;10.3;;
61675;SDS011;47574;52.090;5.244;2024-02-26T10:05:14;11.6;;;10.5;;
61675;SDS011;47574;52.090;5.244;2024-02-26T10:08:30;11.6;;;10.5;;
61675;SDS011;47574;52.090;5.244;2024-02-26T10:10:08;11.3;;;10.1;;
61675;SDS011;47574;52.090;5.244;2024-02-26T10:11:45;11.4;;;10.21;;
61675;SDS011;47574;52.090;5.244;2024-02-26T10:13:24;11.0;;;9.81;;
61675;SDS011;47574;52.090;5.244;2024-02-26T10:16:38;11.5;;;10.4;;
61675;SDS011;47574;52.090;5.244;2024-02-26T10:18:15;11.4;;;10.3;;
61675;SDS011;47574;52.090;5.244;2024-02-26T10:19:52;11.6;;;10.5;;
61675;SDS011;47574;52.090;5.244;2024-02-26T10:23:06;11.8;;;10.6;;
61675;SDS011;47574;52.090;5.244;2024-02-26T10:24:43;10.9;;;9.9;;
61675;SDS011;47574;52.090;5.244;2024-02-26T10:26:22;11.1;;;10.1;;
61675;SDS011;47574;52.090;5.244;2024-02-26T10:28:00;11.2;;;10.1;;
61675;SDS011;47574;52.090;5.244;2024-02-26T10:31:15;12.3;;;11.1;;
61675;SDS011;47574;52.090;5.244;2024-02-26T10:32:52;11.0;;;9.9;;
61675;SDS011;47574;52.090;5.244;2024-02-26T10:34:29;11.0;;;9.9;;
61675;SDS011;47574;52.090;5.244;2024-02-26T10:37:44;10.3;;;9.31;;
61675;SDS011;47574;52.090;5.244;2024-02-26T10:39:25;10.4;;;9.4;;
61675;SDS011;47574;52.090;5.244;2024-02-26T10:41:01;10.7;;;9.71;;
61675;SDS011;47574;52.090;5.244;2024-02-26T10:42:38;10.7;;;9.71;;
61675;SDS011;47574;52.090;5.244;2024-02-26T10:45:54;10.3;;;9.21;;
61675;SDS011;47574;52.090;5.244;2024-02-26T10:47:31;11.8;;;10.6;;
61675;SDS011;47574;52.090;5.244;2024-02-26T10:49:12;11.2;;;10.1;;
61675;SDS011;47574;52.090;5.244;2024-02-26T10:52:30;10.6;;;9.71;;
61675;SDS011;47574;52.090;5.244;2024-02-26T10:54:08;10.8;;;9.71;;
61675;SDS011;47574;52.090;5.244;2024-02-26T10:55:52;10.7;;;9.71;;
61675;SDS011;47574;52.090;5.244;2024-02-26T10:57:33;10.3;;;9.31;;
61675;SDS011;47574;52.090;5.244;2024-02-26T11:00:50;10.6;;;9.6;;
61675;SDS011;47574;52.090;5.244;2024-02-26T11:02:28;9.81;;;8.9;;
61675;SDS011;47574;52.090;5.244;2024-02-26T11:04:06;10.21;;;9.31;;
61675;SDS011;47574;52.090;5.244;2024-02-26T11:05:45;10.6;;;9.71;;
61675;SDS011;47574;52.090;5.244;2024-02-26T11:09:02;11.5;;;10.5;;
61675;SDS011;47574;52.090;5.244;2024-02-26T11:10:41;10.6;;;9.6;;
61675;SDS011;47574;52.090;5.244;2024-02-26T11:12:19;11.1;;;10.0;;
61675;SDS011;47574;52.090;5.244;2024-02-26T11:14:02;11.9;;;10.7;;
61675;SDS011;47574;52.090;5.244;2024-02-26T11:17:16;11.2;;;10.1;;
61675;SDS011;47574;52.090;5.244;2024-02-26T11:18:56;10.21;;;9.21;;
61675;SDS011;47574;52.090;5.244;2024-02-26T11:20:33;10.4;;;9.4;;
61675;SDS011;47574;52.090;5.244;2024-02-26T11:23:51;11.1;;;10.0;;
61675;SDS011;47574;52.090;5.244;2024-02-26T11:25:28;11.0;;;10.0;;
61675;SDS011;47574;52.090;5.244;2024-02-26T11:27:05;10.7;;;9.71;;
61675;SDS011;47574;52.090;5.244;2024-02-26T11:28:43;10.21;;;9.21;;
61675;SDS011;47574;52.090;5.244;2024-02-26T11:32:00;10.8;;;9.71;;
61675;SDS011;47574;52.090;5.244;2024-02-26T11:33:36;11.1;;;10.0;;
61675;SDS011;47574;52.090;5.244;2024-02-26T11:35:14;10.8;;;9.81;;
61675;SDS011;47574;52.090;5.244;2024-02-26T11:38:30;10.7;;;9.6;;
61675;SDS011;47574;52.090;5.244;2024-02-26T11:40:10;10.21;;;9.31;;
61675;SDS011;47574;52.090;5.244;2024-02-26T11:41:48;11.8;;;10.7;;
61675;SDS011;47574;52.090;5.244;2024-02-26T11:43:49;10.4;;;9.5;;
61675;SDS011;47574;52.090;5.244;2024-02-26T11:45:47;11.1;;;9.81;;
61675;SDS011;47574;52.090;5.244;2024-02-26T11:47:40;11.6;;;10.4;;
61675;SDS011;47574;52.090;5.244;2024-02-26T11:51:12;10.5;;;9.6;;
61675;SDS011;47574;52.090;5.244;2024-02-26T11:53:18;11.2;;;10.21;;
61675;SDS011;47574;52.090;5.244;2024-02-26T11:54:56;11.6;;;10.21;;
61675;SDS011;47574;52.090;5.244;2024-02-26T11:56:33;11.6;;;10.21;;
61675;SDS011;47574;52.090;5.244;2024-02-26T11:58:10;10.9;;;9.9;;
61675;SDS011;47574;52.090;5.244;2024-02-26T12:01:36;10.9;;;9.9;;
61675;SDS011;47574;52.090;5.244;2024-02-26T12:03:16;11.1;;;9.6;;
61675;SDS011;47574;52.090;5.244;2024-02-26T12:04:53;10.3;;;9.4;;
61675;SDS011;47574;52.090;5.244;2024-02-26T12:06:30;10.4;;;9.5;;
61675;SDS011;47574;52.090;5.244;2024-02-26T12:09:44;10.4;;;9.4;;
61675;SDS011;47574;52.090;5.244;2024-02-26T12:11:20;10.3;;;9.4;;
61675;SDS011;47574;52.090;5.244;2024-02-26T12:12:58;11.3;;;10.21;;
61675;SDS011;47574;52.090;5.244;2024-02-26T12:14:37;10.7;;;9.6;;
61675;SDS011;47574;52.090;5.244;2024-02-26T12:18:15;10.7;;;9.71;;
61675;SDS011;47574;52.090;5.244;2024-02-26T12:19:54;10.8;;;9.5;;
61675;SDS011;47574;52.090;5.244;2024-02-26T12:21:43;10.3;;;9.31;;
61675;SDS011;47574;52.090;5.244;2024-02-26T12:23:20;10.0;;;9.1;;
61675;SDS011;47574;52.090;5.244;2024-02-26T12:26:36;10.5;;;9.6;;
61675;SDS011;47574;52.090;5.244;2024-02-26T12:28:13;10.21;;;9.31;;
61675;SDS011;47574;52.090;5.244;2024-02-26T12:29:50;10.21;;;9.21;;
61675;SDS011;47574;52.090;5.244;2024-02-26T12:31:29;10.5;;;9.6;;
61675;SDS011;47574;52.090;5.244;2024-02-26T12:34:43;10.1;;;9.21;;
61675;SDS011;47574;52.090;5.244;2024-02-26T12:36:21;10.4;;;9.5;;
61675;SDS011;47574;52.090;5.244;2024-02-26T12:37:58;10.4;;;9.5;;
61675;SDS011;47574;52.090;5.244;2024-02-26T12:41:14;10.0;;;9.21;;
61675;SDS011;47574;52.090;5.244;2024-02-26T12:42:52;9.4;;;8.6;;
61675;SDS011;47574;52.090;5.244;2024-02-26T12:44:29;9.81;;;9.0;;